Time;durP1;ratioP1;P1;durP2;ratioP2;P2;SDS_P1;SDS_P2;PMS_P1;PMS_P2;Temp;Humidity;BMP_temperature;BMP_pressure;BME280_temperature;BME280_humidity;BME280_pressure;Samples;Min_cycle;Max_cycle;Signal;HPM_P1;HPM_P2
2021/08/09 00:00:55;;;;;;;2.90;1.70;;;;;;;14.43;100.00;100676.91;4952098;28;20222;-73
2021/08/09 00:03:21;;;;;;;1.60;1.43;;;;;;;14.52;100.00;100678.66;4953095;28;20273;-73
2021/08/09 00:05:47;;;;;;;2.40;1.60;;;;;;;14.41;100.00;100674.50;4967830;28;20770;-74
2021/08/09 00:08:18;;;;;;;3.00;1.70;;;;;;;14.43;100.00;100683.22;4968029;28;20190;-73
2021/08/09 00:10:43;;;;;;;5.53;1.57;;;;;;;14.55;100.00;100675.34;4936491;29;20317;-74
2021/08/09 00:13:09;;;;;;;3.83;1.60;;;;;;;14.44;100.00;100679.34;4952460;29;20183;-74
2021/08/09 00:15:34;;;;;;;3.10;1.60;;;;;;;14.51;100.00;100679.00;4953254;28;20214;-72
2021/08/09 00:18:00;;;;;;;1.97;1.40;;;;;;;14.51;100.00;100682.53;4953087;29;20185;-73
2021/08/09 00:20:29;;;;;;;3.70;1.60;;;;;;;14.66;100.00;100683.09;4951922;28;20742;-73
2021/08/09 00:22:55;;;;;;;2.37;1.80;;;;;;;14.74;100.00;100681.59;4936842;29;20222;-74
2021/08/09 00:25:25;;;;;;;2.57;1.47;;;;;;;14.75;100.00;100677.75;4952297;28;20661;-73
2021/08/09 00:27:53;;;;;;;3.83;1.60;;;;;;;14.82;100.00;100675.47;4952622;29;20179;-74
2021/08/09 00:30:19;;;;;;;3.37;1.53;;;;;;;14.89;100.00;100678.59;4952004;28;20234;-74
2021/08/09 00:32:47;;;;;;;2.20;1.50;;;;;;;14.99;100.00;100681.19;4967903;28;20295;-74
2021/08/09 00:35:17;;;;;;;2.37;1.40;;;;;;;15.11;100.00;100677.66;4951516;28;20168;-75
2021/08/09 00:37:47;;;;;;;3.43;1.57;;;;;;;15.19;100.00;100679.72;4952338;29;20191;-73
2021/08/09 00:40:16;;;;;;;3.47;1.70;;;;;;;15.35;100.00;100683.81;4935407;28;20229;-72
2021/08/09 00:42:44;;;;;;;2.37;1.50;;;;;;;15.27;100.00;100678.22;4952528;29;20191;-74
2021/08/09 00:45:10;;;;;;;2.53;1.47;;;;;;;15.21;100.00;100682.16;4935576;28;20191;-73
2021/08/09 00:47:35;;;;;;;3.63;1.53;;;;;;;15.42;100.00;100686.97;4953549;28;20191;-74
2021/08/09 00:50:02;;;;;;;1.50;1.37;;;;;;;15.21;100.00;100679.44;4971091;28;20594;-73
2021/08/09 00:52:32;;;;;;;2.53;1.47;;;;;;;15.49;100.00;100679.97;4956297;28;20246;-73
2021/08/09 00:55:00;;;;;;;3.33;1.60;;;;;;;15.52;100.00;100681.28;4969073;28;20668;-72
2021/08/09 00:57:26;;;;;;;3.10;1.70;;;;;;;15.40;100.00;100679.06;4955840;28;20273;-73
2021/08/09 00:59:51;;;;;;;1.90;1.70;;;;;;;15.48;100.00;100683.00;4934774;28;20215;-74
2021/08/09 01:02:22;;;;;;;1.70;1.30;;;;;;;15.40;100.00;100684.53;4939470;29;20226;-75
2021/08/09 01:04:48;;;;;;;4.03;1.67;;;;;;;15.33;100.00;100680.56;4940059;29;20183;-74
2021/08/09 01:07:15;;;;;;;5.90;1.70;;;;;;;15.30;100.00;100677.63;4956673;28;20253;-75
2021/08/09 01:09:45;;;;;;;3.03;1.47;;;;;;;15.39;100.00;100682.91;4952227;28;20211;-74
2021/08/09 01:12:41;;;;;;;2.63;1.70;;;;;;;15.36;100.00;100688.16;4952213;28;20258;-74
2021/08/09 01:15:18;;;;;;;3.13;1.40;;;;;;;15.19;100.00;100690.69;4955415;28;20191;-75
2021/08/09 01:17:49;;;;;;;2.95;1.60;;;;;;;15.03;100.00;100689.28;4941370;28;20235;-74
2021/08/09 01:20:43;;;;;;;3.67;1.50;;;;;;;15.17;100.00;100684.69;4935942;29;20761;-76
2021/08/09 01:23:38;;;;;;;2.63;1.50;;;;;;;15.21;100.00;100690.38;4939062;29;20646;-75
2021/08/09 01:26:10;;;;;;;3.67;1.77;;;;;;;15.16;100.00;100688.56;4937909;28;20227;-75
2021/08/09 01:28:38;;;;;;;2.80;1.60;;;;;;;15.12;100.00;100687.47;4936581;29;20188;-75
2021/08/09 01:31:04;;;;;;;2.07;1.40;;;;;;;15.11;100.00;100694.09;4922641;29;20286;-75
2021/08/09 01:33:40;;;;;;;4.00;1.60;;;;;;;15.11;100.00;100691.34;4909002;29;20199;-74
2021/08/09 01:36:06;;;;;;;3.45;1.55;;;;;;;15.16;100.00;100696.78;4945670;29;20226;-75
2021/08/09 01:38:33;;;;;;;4.30;2.03;;;;;;;15.25;100.00;100696.88;4951438;29;20179;-73
2021/08/09 01:41:00;;;;;;;2.50;1.40;;;;;;;15.35;100.00;100694.78;4955756;28;20229;-74
2021/08/09 01:43:29;;;;;;;2.40;1.43;;;;;;;15.04;100.00;100701.84;4940097;28;20183;-73
2021/08/09 01:45:56;;;;;;;3.17;1.73;;;;;;;15.07;100.00;100700.44;4954459;28;20297;-72
2021/08/09 01:48:24;;;;;;;2.33;1.60;;;;;;;15.14;100.00;100701.69;4954961;28;20225;-74
2021/08/09 01:50:53;;;;;;;2.47;1.70;;;;;;;15.21;100.00;100707.59;4950946;28;20242;-74
2021/08/09 01:53:21;;;;;;;2.72;1.50;;;;;;;15.08;100.00;100699.34;4955676;28;20187;-74
2021/08/09 01:55:54;;;;;;;3.40;1.60;;;;;;;15.11;100.00;100707.75;4950296;28;20233;-74
2021/08/09 01:58:22;;;;;;;2.00;1.50;;;;;;;15.04;100.00;100696.38;4970151;28;20230;-74
2021/08/09 02:00:48;;;;;;;5.10;1.97;;;;;;;14.89;100.00;100708.69;4963848;28;20222;-74
2021/08/09 02:03:16;;;;;;;3.93;1.63;;;;;;;14.94;100.00;100697.69;4954847;28;20274;-74
2021/08/09 02:05:42;;;;;;;2.73;1.70;;;;;;;14.99;100.00;100707.41;4940672;29;20229;-73
2021/08/09 02:08:15;;;;;;;3.27;1.60;;;;;;;14.88;100.00;100705.16;4938996;29;20214;-74
2021/08/09 02:10:42;;;;;;;2.57;1.70;;;;;;;14.86;100.00;100703.84;4947477;28;20223;-74
2021/08/09 02:13:51;;;;;;;4.07;1.80;;;;;;;14.73;100.00;100710.06;4924441;29;20688;-74
2021/08/09 02:16:29;;;;;;;2.53;1.90;;;;;;;14.91;100.00;100707.31;4951212;28;20704;-75
2021/08/09 02:19:21;;;;;;;2.00;1.60;;;;;;;14.78;100.00;100712.69;4953760;29;20186;-74
2021/08/09 02:21:58;;;;;;;2.27;1.73;;;;;;;14.82;100.00;100709.09;4932442;29;20219;-73
2021/08/09 02:24:49;;;;;;;4.60;1.70;;;;;;;14.69;100.00;100711.78;4919636;29;20590;-74
2021/08/09 02:27:20;;;;;;;2.33;1.63;;;;;;;14.74;100.00;100712.50;4950380;29;20797;-74
2021/08/09 02:29:51;;;;;;;4.03;1.60;;;;;;;14.66;100.00;100715.91;4921386;28;20208;-74
2021/08/09 02:32:18;;;;;;;2.37;1.50;;;;;;;14.60;100.00;100720.97;4922241;29;20342;-73
2021/08/09 02:34:47;;;;;;;2.33;1.70;;;;;;;14.54;100.00;100722.94;4938973;29;20234;-75
2021/08/09 02:37:13;;;;;;;2.93;2.00;;;;;;;14.62;100.00;100725.00;4922773;29;20227;-74
2021/08/09 02:39:41;;;;;;;3.43;1.90;;;;;;;14.64;100.00;100729.06;4938924;28;20700;-74
2021/08/09 02:42:12;;;;;;;2.33;1.53;;;;;;;14.66;100.00;100726.03;4938238;29;20709;-74
2021/08/09 02:44:38;;;;;;;2.30;1.53;;;;;;;14.65;100.00;100725.22;4957385;28;20209;-74
2021/08/09 02:47:06;;;;;;;3.90;1.77;;;;;;;14.57;100.00;100719.59;4944296;28;20261;-74
2021/08/09 02:49:35;;;;;;;3.70;1.60;;;;;;;14.52;100.00;100718.88;4944214;29;20207;-74
2021/08/09 02:52:04;;;;;;;3.55;1.92;;;;;;;14.46;100.00;100720.88;4954106;28;20226;-74
2021/08/09 02:54:29;;;;;;;3.97;1.77;;;;;;;14.42;100.00;100729.97;4939235;28;20215;-75
2021/08/09 02:56:58;;;;;;;2.70;1.50;;;;;;;14.42;100.00;100725.31;4934239;28;20227;-74
2021/08/09 02:59:24;;;;;;;3.20;1.80;;;;;;;14.50;100.00;100724.63;4953633;29;20198;-73
2021/08/09 03:01:52;;;;;;;3.47;1.37;;;;;;;14.50;100.00;100721.88;4953602;28;20227;-74
2021/08/09 03:04:22;;;;;;;3.70;1.80;;;;;;;14.44;100.00;100734.00;4922408;29;20191;-73
2021/08/09 03:06:52;;;;;;;3.67;1.67;;;;;;;14.50;100.00;100735.56;4963321;28;20230;-73
2021/08/09 03:09:21;;;;;;;4.70;1.80;;;;;;;14.58;100.00;100734.91;4923259;29;20207;-74
2021/08/09 03:11:46;;;;;;;3.23;1.80;;;;;;;14.60;100.00;100735.44;4929935;29;20232;-74
2021/08/09 03:14:30;;;;;;;2.67;1.67;;;;;;;14.56;100.00;100731.66;4937672;29;20187;-74
2021/08/09 03:16:55;;;;;;;3.63;1.77;;;;;;;14.42;100.00;100738.97;4947341;28;20219;-75
2021/08/09 03:19:24;;;;;;;4.03;1.80;;;;;;;14.46;100.00;100736.47;4968773;28;20207;-75
2021/08/09 03:21:56;;;;;;;3.67;1.73;;;;;;;14.38;100.00;100735.19;4945466;28;20223;-73
2021/08/09 03:24:22;;;;;;;2.77;1.77;;;;;;;14.43;100.00;100748.81;4953207;28;20187;-75
2021/08/09 03:26:48;;;;;;;3.13;1.70;;;;;;;14.41;100.00;100740.09;4960147;28;20219;-75
2021/08/09 03:29:14;;;;;;;4.17;1.90;;;;;;;14.43;100.00;100742.50;4921309;29;20558;-73
2021/08/09 03:31:40;;;;;;;2.63;1.93;;;;;;;14.47;100.00;100736.16;4953747;28;20256;-74
2021/08/09 03:34:06;;;;;;;2.87;1.83;;;;;;;14.27;100.00;100749.31;4953001;28;20183;-75
2021/08/09 03:36:34;;;;;;;3.03;1.87;;;;;;;14.42;100.00;100746.38;4956395;28;20227;-73
2021/08/09 03:39:00;;;;;;;3.47;2.17;;;;;;;14.26;100.00;100750.41;4968818;28;20183;-73
2021/08/09 03:41:25;;;;;;;2.40;1.67;;;;;;;14.12;100.00;100748.69;4952271;28;20234;-74
2021/08/09 03:43:51;;;;;;;4.37;1.93;;;;;;;14.17;100.00;100754.09;4965921;28;20598;-74
2021/08/09 03:46:19;;;;;;;4.03;2.00;;;;;;;14.23;100.00;100747.44;4968277;28;20219;-76
2021/08/09 03:48:45;;;;;;;2.37;1.67;;;;;;;14.22;100.00;100749.38;4968535;28;20277;-75
2021/08/09 03:51:13;;;;;;;4.00;1.83;;;;;;;14.17;100.00;100751.34;4936355;29;20748;-74
2021/08/09 03:53:40;;;;;;;5.27;2.10;;;;;;;14.22;100.00;100751.28;4952921;28;20222;-73
2021/08/09 03:56:09;;;;;;;2.57;1.63;;;;;;;14.30;100.00;100749.53;4953256;28;20219;-75
2021/08/09 03:58:35;;;;;;;3.13;1.83;;;;;;;14.29;100.00;100750.63;4956981;29;20187;-74
2021/08/09 04:01:04;;;;;;;2.83;1.73;;;;;;;14.31;100.00;100753.88;4957404;28;20310;-74
2021/08/09 04:03:30;;;;;;;3.83;2.10;;;;;;;14.36;100.00;100759.28;4957649;28;20688;-73
2021/08/09 04:05:56;;;;;;;3.63;1.90;;;;;;;14.34;100.00;100752.47;4957123;29;20298;-74
2021/08/09 04:08:22;;;;;;;2.43;1.80;;;;;;;14.39;100.00;100758.69;4972054;28;20193;-75
2021/08/09 04:10:50;;;;;;;3.63;1.93;;;;;;;14.39;100.00;100753.22;4955842;29;20235;-75
2021/08/09 04:13:19;;;;;;;3.97;2.00;;;;;;;14.22;100.00;100754.03;4970035;28;20191;-74
2021/08/09 04:15:47;;;;;;;3.23;1.80;;;;;;;14.39;100.00;100757.88;4940348;28;20708;-73
2021/08/09 04:18:15;;;;;;;4.17;1.67;;;;;;;14.38;100.00;100762.53;4970796;28;20183;-75
2021/08/09 04:20:41;;;;;;;2.73;1.80;;;;;;;14.36;100.00;100758.47;4951826;28;20768;-74
2021/08/09 04:23:10;;;;;;;5.67;2.00;;;;;;;14.39;100.00;100769.59;4920359;28;20274;-73
2021/08/09 04:25:35;;;;;;;3.63;1.70;;;;;;;14.57;100.00;100776.22;4935905;28;20253;-73
2021/08/09 04:28:01;;;;;;;3.70;1.80;;;;;;;14.51;100.00;100767.28;4935827;28;20199;-73
2021/08/09 04:30:27;;;;;;;3.70;1.80;;;;;;;14.58;100.00;100770.47;4951253;28;20314;-73
2021/08/09 04:32:53;;;;;;;4.10;1.90;;;;;;;14.61;100.00;100763.56;4940624;29;20235;-74
2021/08/09 04:35:21;;;;;;;1.83;1.53;;;;;;;14.91;100.00;100770.22;4964699;28;20558;-75
2021/08/09 04:37:54;;;;;;;2.80;1.67;;;;;;;14.87;100.00;100765.63;4952134;29;20262;-73
2021/08/09 04:40:19;;;;;;;2.40;1.87;;;;;;;14.72;100.00;100772.16;4936579;28;20264;-75
2021/08/09 04:42:47;;;;;;;3.07;1.60;;;;;;;14.80;100.00;100773.41;4925229;29;20269;-74
2021/08/09 04:45:17;;;;;;;3.83;1.70;;;;;;;14.82;100.00;100779.41;4921470;28;20175;-74
2021/08/09 04:47:43;;;;;;;3.57;1.87;;;;;;;14.95;100.00;100779.44;4952878;28;20681;-74
2021/08/09 04:50:11;;;;;;;4.20;1.50;;;;;;;14.88;100.00;100767.25;4948122;29;20222;-75
2021/08/09 04:52:43;;;;;;;3.77;1.90;;;;;;;14.89;100.00;100769.69;4938884;29;20657;-75
2021/08/09 04:55:13;;;;;;;3.20;1.60;;;;;;;14.90;100.00;100773.25;4935993;28;20186;-74
2021/08/09 04:57:40;;;;;;;3.03;1.80;;;;;;;14.99;100.00;100775.81;4922830;28;20186;-74
2021/08/09 05:00:06;;;;;;;3.17;1.80;;;;;;;15.04;100.00;100778.47;4936316;29;20203;-74
2021/08/09 05:02:39;;;;;;;4.33;1.80;;;;;;;15.01;100.00;100767.31;4936961;28;20215;-73
2021/08/09 05:05:10;;;;;;;3.27;1.60;;;;;;;15.08;100.00;100779.50;4951486;28;20183;-75
2021/08/09 05:07:36;;;;;;;3.77;1.83;;;;;;;15.20;100.00;100782.63;4952736;28;20215;-75
2021/08/09 05:10:05;;;;;;;2.10;1.67;;;;;;;15.16;100.00;100781.59;4951534;29;20199;-75
2021/08/09 05:12:35;;;;;;;3.97;1.90;;;;;;;15.32;100.00;100782.94;4936454;29;20301;-74
2021/08/09 05:15:04;;;;;;;4.20;1.70;;;;;;;15.41;100.00;100786.63;4968149;28;20218;-75
2021/08/09 05:17:29;;;;;;;3.35;1.58;;;;;;;15.51;100.00;100790.00;4951431;28;20230;-74
2021/08/09 05:19:55;;;;;;;3.90;1.80;;;;;;;15.46;100.00;100789.28;4919644;29;20211;-75
2021/08/09 05:22:20;;;;;;;3.15;1.67;;;;;;;15.67;100.00;100782.31;4935200;29;20222;-75
2021/08/09 05:24:46;;;;;;;3.28;1.52;;;;;;;15.93;100.00;100785.09;4936382;29;20191;-73
2021/08/09 05:27:12;;;;;;;3.58;1.52;;;;;;;16.18;100.00;100784.59;4925194;28;20223;-74
2021/08/09 05:29:37;;;;;;;3.20;1.97;;;;;;;16.16;100.00;100792.28;4940571;28;20199;-75
2021/08/09 05:32:06;;;;;;;3.53;1.60;;;;;;;16.22;100.00;100785.63;4939039;29;20239;-75
2021/08/09 05:34:34;;;;;;;3.70;1.70;;;;;;;16.15;100.00;100785.16;4936687;29;20734;-75
2021/08/09 05:37:02;;;;;;;3.92;1.83;;;;;;;16.30;100.00;100782.13;4939978;28;20306;-74
2021/08/09 05:39:29;;;;;;;4.47;1.60;;;;;;;16.16;100.00;100795.84;4969335;28;20303;-76
2021/08/09 05:41:57;;;;;;;3.40;1.60;;;;;;;16.38;100.00;100790.47;4954906;29;20215;-74
2021/08/09 05:44:23;;;;;;;2.53;1.42;;;;;;;16.57;100.00;100794.72;4934049;28;20183;-75
2021/08/09 05:46:52;;;;;;;3.45;1.58;;;;;;;16.38;100.00;100789.66;4924257;29;20326;-75
2021/08/09 05:49:26;;;;;;;3.05;1.40;;;;;;;16.66;100.00;100806.56;4947338;29;20602;-76
2021/08/09 05:51:54;;;;;;;3.92;1.83;;;;;;;16.67;100.00;100794.47;4955670;28;20231;-73
2021/08/09 05:54:20;;;;;;;2.17;1.40;;;;;;;16.94;100.00;100794.41;4920119;29;20178;-73
2021/08/09 05:56:50;;;;;;;2.83;1.50;;;;;;;16.96;100.00;100801.22;4935258;29;20234;-72
2021/08/09 05:59:17;;;;;;;2.10;1.50;;;;;;;16.79;100.00;100802.16;4961627;28;20207;-73
2021/08/09 06:01:48;;;;;;;3.50;1.73;;;;;;;16.82;100.00;100796.88;4923207;29;20322;-73
2021/08/09 06:04:18;;;;;;;3.50;1.40;;;;;;;16.67;100.00;100797.22;4930479;29;20953;-74
2021/08/09 06:06:44;;;;;;;2.22;1.42;;;;;;;16.84;100.00;100797.38;4938613;28;20218;-74
2021/08/09 06:09:23;;;;;;;3.25;1.33;;;;;;;16.76;100.00;100797.31;4935113;29;20199;-74
2021/08/09 06:11:52;;;;;;;2.42;1.75;;;;;;;16.95;100.00;100798.75;4937336;28;20239;-75
2021/08/09 06:14:17;;;;;;;2.20;1.52;;;;;;;16.76;100.00;100792.63;4951324;28;20188;-73
2021/08/09 06:16:45;;;;;;;3.28;1.42;;;;;;;16.89;100.00;100791.78;4937582;29;20231;-73
2021/08/09 06:19:14;;;;;;;3.50;1.95;;;;;;;16.92;100.00;100801.31;4954289;28;20183;-74
2021/08/09 06:21:40;;;;;;;2.53;1.50;;;;;;;16.74;100.00;100794.03;4954267;28;20223;-73
2021/08/09 06:24:09;;;;;;;2.80;1.42;;;;;;;16.91;100.00;100797.78;4938672;29;20183;-73
2021/08/09 06:26:40;;;;;;;2.90;1.67;;;;;;;17.03;100.00;100800.75;4954019;28;20226;-73
2021/08/09 06:29:06;;;;;;;2.15;1.35;;;;;;;16.97;100.00;100799.25;4953622;29;20668;-74
2021/08/09 06:31:33;;;;;;;3.08;1.63;;;;;;;17.05;100.00;100790.28;4921938;29;20259;-74
2021/08/09 06:33:59;;;;;;;3.60;1.60;;;;;;;17.05;100.00;100793.03;4938370;29;20316;-76
2021/08/09 06:36:31;;;;;;;4.13;1.50;;;;;;;17.18;100.00;100800.41;4938749;29;20705;-75
2021/08/09 06:38:57;;;;;;;2.33;1.70;;;;;;;17.20;100.00;100803.69;4953576;29;20675;-76
2021/08/09 06:41:24;;;;;;;2.42;1.60;;;;;;;17.25;100.00;100806.28;4937564;29;20215;-76
2021/08/09 06:44:02;;;;;;;3.15;1.63;;;;;;;17.24;100.00;100807.44;4926321;29;20198;-73
2021/08/09 06:46:28;;;;;;;3.20;1.50;;;;;;;17.30;100.00;100806.19;4952706;28;20230;-73
2021/08/09 06:48:54;;;;;;;2.67;1.50;;;;;;;17.60;100.00;100806.19;4953578;28;20187;-73
2021/08/09 06:51:20;;;;;;;2.67;1.80;;;;;;;17.60;100.00;100818.03;4952933;28;20230;-73
2021/08/09 06:53:48;;;;;;;5.43;1.90;;;;;;;17.64;100.00;100805.28;4953888;29;20179;-73
2021/08/09 06:56:15;;;;;;;4.95;1.70;;;;;;;17.54;100.00;100816.50;4920963;29;20693;-74
2021/08/09 06:58:47;;;;;;;5.47;2.00;;;;;;;17.67;100.00;100806.56;4953236;29;20191;-72
2021/08/09 07:01:14;;;;;;;4.97;2.00;;;;;;;17.67;100.00;100812.88;4964887;28;20581;-73
2021/08/09 07:03:45;;;;;;;3.55;1.60;;;;;;;17.66;100.00;100813.22;4950368;29;20752;-73
2021/08/09 07:06:20;;;;;;;5.70;2.05;;;;;;;17.69;100.00;100813.41;4952738;28;20227;-74
2021/08/09 07:08:46;;;;;;;3.55;1.85;;;;;;;17.83;100.00;100816.84;4921828;29;20716;-73
2021/08/09 07:11:12;;;;;;;2.10;1.50;;;;;;;17.68;100.00;100808.22;4966041;28;20223;-72
2021/08/09 07:13:37;;;;;;;3.75;1.60;;;;;;;17.64;100.00;100810.78;4953410;28;20187;-71
2021/08/09 07:16:03;;;;;;;2.88;1.80;;;;;;;17.82;100.00;100812.50;4948640;28;20258;-72
2021/08/09 07:18:29;;;;;;;3.88;1.70;;;;;;;18.08;100.00;100813.44;4952821;28;20183;-73
2021/08/09 07:20:56;;;;;;;2.63;1.70;;;;;;;17.98;100.00;100810.94;4952759;29;20222;-73
2021/08/09 07:23:23;;;;;;;3.63;1.75;;;;;;;18.13;100.00;100819.59;4937498;29;20194;-75
2021/08/09 07:25:54;;;;;;;4.07;1.50;;;;;;;18.16;100.00;100818.97;4945404;28;20230;-74
2021/08/09 07:28:22;;;;;;;3.17;1.45;;;;;;;18.28;100.00;100820.00;4953183;29;20552;-75
2021/08/09 07:30:50;;;;;;;3.30;1.48;;;;;;;18.27;100.00;100825.81;4944800;28;20313;-73
2021/08/09 07:33:15;;;;;;;3.47;1.50;;;;;;;18.46;100.00;100829.94;4938212;29;20194;-74
2021/08/09 07:35:41;;;;;;;2.53;1.45;;;;;;;18.65;100.00;100833.22;4969918;28;20696;-74
2021/08/09 07:38:09;;;;;;;4.07;1.40;;;;;;;18.48;100.00;100826.84;4960573;29;20191;-76
2021/08/09 07:40:35;;;;;;;2.40;1.50;;;;;;;18.45;100.00;100838.50;4944025;28;20298;-75
2021/08/09 07:43:04;;;;;;;2.85;1.40;;;;;;;18.52;100.00;100831.41;4954613;29;20246;-73
2021/08/09 07:45:32;;;;;;;4.20;1.73;;;;;;;18.61;100.00;100829.47;4956287;28;20227;-74
2021/08/09 07:47:59;;;;;;;2.85;1.70;;;;;;;18.62;100.00;100834.66;4937828;29;20661;-76
2021/08/09 07:50:27;;;;;;;3.15;1.65;;;;;;;18.68;100.00;100832.56;4952264;28;20227;-77
2021/08/09 07:52:55;;;;;;;3.08;1.80;;;;;;;18.89;100.00;100832.44;4937554;29;20258;-73
2021/08/09 07:55:21;;;;;;;3.25;1.73;;;;;;;18.87;100.00;100836.66;4952325;28;20605;-75
2021/08/09 07:57:47;;;;;;;3.72;1.73;;;;;;;18.73;100.00;100835.16;4952527;28;20728;-75
2021/08/09 08:00:18;;;;;;;5.28;1.88;;;;;;;18.90;100.00;100842.31;4951922;28;20286;-73
2021/08/09 08:02:54;;;;;;;2.80;1.55;;;;;;;18.80;100.00;100846.53;4952705;29;20194;-74
2021/08/09 08:05:22;;;;;;;3.15;1.63;;;;;;;18.71;100.00;100849.25;4952756;28;20187;-72
2021/08/09 08:07:52;;;;;;;4.25;1.88;;;;;;;18.74;100.00;100847.81;4937048;29;20214;-73
2021/08/09 08:10:21;;;;;;;3.95;1.60;;;;;;;18.66;100.00;100848.56;4952150;28;20221;-75
2021/08/09 08:12:47;;;;;;;3.53;1.58;;;;;;;18.88;100.00;100829.19;4937179;29;20754;-76
2021/08/09 08:15:15;;;;;;;3.55;1.50;;;;;;;19.10;100.00;100841.72;4951807;28;20225;-73
2021/08/09 08:17:46;;;;;;;3.42;1.70;;;;;;;18.99;100.00;100836.84;4936822;28;20187;-74
2021/08/09 08:20:17;;;;;;;4.70;1.50;;;;;;;19.04;100.00;100836.69;4936415;28;20261;-73
2021/08/09 08:22:47;;;;;;;4.00;1.40;;;;;;;19.40;100.00;100840.75;4933111;29;20615;-72
2021/08/09 08:25:16;;;;;;;4.53;1.50;;;;;;;19.33;99.96;100834.91;4932738;29;20800;-72
2021/08/09 08:27:46;;;;;;;3.17;1.42;;;;;;;19.14;100.00;100848.22;4948697;28;20315;-73
2021/08/09 08:30:12;;;;;;;3.92;1.60;;;;;;;19.43;98.25;100845.59;4948186;28;20343;-72
2021/08/09 08:32:39;;;;;;;4.22;1.17;;;;;;;19.63;94.93;100856.75;4919851;29;20207;-74
2021/08/09 08:35:08;;;;;;;3.60;1.20;;;;;;;19.95;94.86;100853.50;4933721;29;20192;-77
2021/08/09 08:37:34;;;;;;;4.70;1.42;;;;;;;19.86;92.60;100856.25;4961606;28;20227;-75
2021/08/09 08:40:05;;;;;;;3.30;1.30;;;;;;;19.83;89.21;100856.91;4964224;28;20239;-76
2021/08/09 08:42:37;;;;;;;1.98;1.10;;;;;;;20.05;88.47;100851.16;4918264;29;20569;-74
2021/08/09 08:45:06;;;;;;;2.25;1.40;;;;;;;20.16;92.62;100852.44;4933302;29;20588;-73
2021/08/09 08:47:35;;;;;;;3.97;1.10;;;;;;;20.27;86.15;100856.44;4963450;28;20219;-75
2021/08/09 08:50:03;;;;;;;3.63;1.30;;;;;;;20.02;87.57;100857.38;4935752;29;20203;-75
2021/08/09 08:52:29;;;;;;;4.15;1.10;;;;;;;20.29;87.48;100854.16;4951606;28;20256;-73
2021/08/09 08:54:54;;;;;;;4.10;1.40;;;;;;;20.34;84.56;100862.25;4952687;29;20211;-73
2021/08/09 08:57:22;;;;;;;2.25;1.13;;;;;;;20.61;83.38;100866.19;4951579;28;20225;-74
2021/08/09 08:59:48;;;;;;;2.67;1.10;;;;;;;20.51;83.39;100862.97;4951831;29;20297;-75
2021/08/09 09:02:37;;;;;;;3.38;1.13;;;;;;;20.66;83.09;100865.22;4951575;29;20836;-76
2021/08/09 09:05:16;;;;;;;1.88;1.23;;;;;;;21.01;82.94;100862.72;4951253;29;20187;-72
2021/08/09 09:07:50;;;;;;;1.77;1.20;;;;;;;21.11;81.42;100861.50;4952028;29;20234;-75
2021/08/09 09:10:16;;;;;;;2.97;1.40;;;;;;;21.46;82.52;100861.72;4921644;28;20211;-73
2021/08/09 09:12:42;;;;;;;4.25;1.02;;;;;;;21.78;78.20;100872.00;4965219;28;20223;-72
2021/08/09 09:15:08;;;;;;;4.80;1.30;;;;;;;21.51;76.19;100856.00;4955143;28;20198;-74
2021/08/09 09:17:38;;;;;;;2.50;1.00;;;;;;;20.97;72.25;100872.84;4956000;28;20314;-73
2021/08/09 09:20:26;;;;;;;1.58;1.00;;;;;;;20.74;75.34;100878.97;4954923;28;20594;-72
2021/08/09 09:23:15;;;;;;;4.72;1.10;;;;;;;20.89;76.46;100881.16;4955764;29;20194;-74
2021/08/09 09:25:41;;;;;;;3.42;1.20;;;;;;;20.95;78.29;100880.66;4939011;29;20659;-75
2021/08/09 09:28:22;;;;;;;2.85;1.20;;;;;;;20.68;79.35;100885.84;4971071;28;20175;-74
2021/08/09 09:30:48;;;;;;;1.83;1.20;;;;;;;20.78;76.89;100890.97;4954730;28;20234;-73
2021/08/09 09:33:16;;;;;;;2.65;1.20;;;;;;;21.00;78.35;100888.72;4939780;29;20559;-76
2021/08/09 09:35:42;;;;;;;4.00;1.30;;;;;;;21.04;81.51;100889.69;4954810;28;20313;-74
2021/08/09 09:38:14;;;;;;;2.38;1.30;;;;;;;21.14;77.59;100896.78;4955819;29;20679;-75
2021/08/09 09:40:40;;;;;;;2.53;1.20;;;;;;;21.17;79.22;100896.91;4922909;29;20234;-73
2021/08/09 09:43:23;;;;;;;2.95;1.10;;;;;;;21.26;78.82;100890.19;4964136;28;20183;-74
2021/08/09 09:45:53;;;;;;;4.28;1.40;;;;;;;21.45;79.14;100890.53;4938213;29;20243;-73
2021/08/09 09:48:42;;;;;;;6.00;1.30;;;;;;;21.29;74.90;100903.31;4970370;28;20615;-73
2021/08/09 09:51:15;;;;;;;1.65;0.95;;;;;;;21.10;75.23;100904.09;4954575;28;20619;-76
2021/08/09 09:53:48;;;;;;;2.15;1.10;;;;;;;21.35;73.28;100907.47;4935529;28;20196;-74
2021/08/09 09:56:14;;;;;;;2.88;1.20;;;;;;;21.14;76.51;100910.59;4938697;29;20225;-74
2021/08/09 09:58:40;;;;;;;3.20;1.30;;;;;;;20.79;78.00;100911.94;4970526;28;20215;-76
2021/08/09 10:01:06;;;;;;;3.00;1.25;;;;;;;21.00;74.91;100918.31;4938131;29;20223;-74
2021/08/09 10:03:34;;;;;;;4.85;1.30;;;;;;;20.94;76.52;100911.38;4954598;29;20191;-75
2021/08/09 10:06:03;;;;;;;3.05;1.30;;;;;;;21.00;78.39;100921.88;4954392;29;20224;-76
2021/08/09 10:08:32;;;;;;;3.45;1.30;;;;;;;21.20;75.47;100914.78;4954250;29;20195;-76
2021/08/09 10:11:01;;;;;;;3.05;1.30;;;;;;;21.16;77.67;100916.59;4938852;29;20302;-74
2021/08/09 10:13:29;;;;;;;2.90;1.30;;;;;;;21.02;73.00;100918.78;4939177;29;20574;-73
2021/08/09 10:15:56;;;;;;;2.40;1.20;;;;;;;20.65;74.45;100927.13;4954024;28;20215;-73
2021/08/09 10:18:25;;;;;;;2.63;1.05;;;;;;;20.80;75.27;100927.34;4954261;29;20559;-74
2021/08/09 10:20:52;;;;;;;2.42;1.10;;;;;;;20.83;74.79;100933.03;4969039;28;20334;-72
2021/08/09 10:23:35;;;;;;;2.00;1.10;;;;;;;20.62;75.62;100942.41;4954238;29;20272;-73
2021/08/09 10:26:01;;;;;;;2.60;1.02;;;;;;;20.63;79.82;100934.91;4938107;28;20258;-73
2021/08/09 10:28:52;;;;;;;3.28;1.10;;;;;;;20.89;79.45;100937.22;4970754;28;20179;-73
2021/08/09 10:31:30;;;;;;;2.17;1.08;;;;;;;20.68;76.87;100937.50;4969230;28;20227;-73
2021/08/09 10:33:56;;;;;;;3.63;1.20;;;;;;;20.16;78.13;100943.47;4961211;28;20274;-73
2021/08/09 10:36:24;;;;;;;3.67;1.35;;;;;;;20.36;79.68;100946.34;4969173;28;20227;-74
2021/08/09 10:39:03;;;;;;;3.28;1.23;;;;;;;20.53;80.95;100949.88;4925915;29;20179;-73
2021/08/09 10:41:39;;;;;;;2.63;1.10;;;;;;;20.51;81.16;100960.44;4965680;28;20302;-73
2021/08/09 10:44:09;;;;;;;3.65;1.35;;;;;;;20.42;83.79;100955.25;4954970;28;20190;-76
2021/08/09 10:46:37;;;;;;;3.75;1.23;;;;;;;20.40;85.33;100954.78;4954580;28;20615;-74
2021/08/09 10:49:08;;;;;;;4.43;1.45;;;;;;;20.34;86.32;100961.63;4953583;29;20199;-74
2021/08/09 10:51:59;;;;;;;4.78;1.20;;;;;;;20.21;86.50;100962.63;4921988;29;20235;-75
2021/08/09 10:54:28;;;;;;;3.10;1.30;;;;;;;20.05;87.77;100963.47;4958775;28;20215;-74
2021/08/09 10:57:00;;;;;;;3.70;1.20;;;;;;;20.02;88.57;100959.44;4953382;28;20231;-72
2021/08/09 10:59:40;;;;;;;5.40;1.30;;;;;;;20.00;91.01;100969.13;4963000;28;20230;-75
2021/08/09 11:02:23;;;;;;;2.22;1.10;;;;;;;19.85;94.55;100976.00;4953255;29;20249;-73
2021/08/09 11:05:17;;;;;;;4.80;1.48;;;;;;;19.78;94.02;100970.13;4933214;29;20191;-73
2021/08/09 11:07:44;;;;;;;4.55;1.50;;;;;;;19.90;96.51;100967.53;4955499;29;20712;-73
2021/08/09 11:10:12;;;;;;;3.30;1.35;;;;;;;19.72;96.75;100970.59;4940495;28;20202;-73
2021/08/09 11:12:59;;;;;;;5.07;1.17;;;;;;;19.69;98.37;100966.56;4939739;29;20218;-74
2021/08/09 11:15:25;;;;;;;4.20;1.35;;;;;;;19.84;95.96;100966.09;4923448;28;20191;-74
2021/08/09 11:17:54;;;;;;;5.03;1.50;;;;;;;19.61;99.85;100963.78;4971099;28;20612;-75
2021/08/09 11:20:21;;;;;;;3.78;1.40;;;;;;;19.68;100.00;100964.09;4967493;28;20587;-74
2021/08/09 11:23:00;;;;;;;3.05;1.23;;;;;;;19.78;100.00;100974.84;4954693;28;20191;-74
2021/08/09 11:25:33;;;;;;;2.72;1.40;;;;;;;19.76;100.00;100966.03;4948606;28;20190;-74
2021/08/09 11:28:23;;;;;;;3.97;1.48;;;;;;;20.12;100.00;100970.09;4965964;28;20218;-76
2021/08/09 11:30:50;;;;;;;5.13;1.50;;;;;;;20.16;100.00;100965.56;4947548;29;20239;-74